logo
Search for airport 
image banner adimage banner adimage banner ad
image banner ad

SQEF - El Triunfo

Located in , Colombia

ICAO - , IATA -

Data provided by Airmate  

General information

Coordinates: N4°51'53" W74°48'13"
Elevation is 762 feet MSL.
Magnetic variation is -7° East
View others Airports in Tolima

Operational data

Special qualification required
Current time UTC:
Current local time:
Weather at : SKIB - Ibague-Perales ( 61 km )
METAR: SKIB 231800Z 13011KT 9999 SCT030 SCT100 30/15 Q1020
View NOTAMs / SUP AIP / TFR affecting this airport [VIEW]
Communications frequencies: [VIEW]

Runways:

RWY identifierQFULength (ft)Width (ft)SurfaceLDA (ft)
0214°339484DIRT
20194°339484DIRT

Airport contact information

Address: Colombia

Satellite view of SQEF